Montgomery, Iowa
Current Conditions -  °F | °C
As of 3:13 AM on Friday 19 Dec 2014 (Local Time) from KMJQ Reporting Station
Overcast Overcast  
Wind Chill: 22°   Ceiling: 700
Heat Index: 28°   Visibility: 7mi
Dew Point: 27°   Wind: 6mph
Humidity: 93%   Direction: 170°S
Pressure: 30.2"   Gusts: NA
Location:  43.4265°N, 95.1547°W
Report Text: KMJQ 190913Z AUTO 17005KT 7SM BKN007 BKN012 OVC025 M02/M03 A3020 RMK AO2
Loading
Personal Weather Stations






























Interactive Weather Map New forecast layout! Learn more

10-Day Weather Forecast

Advertisements
Track Severe Weather on mobile